sensor_id;sensor_type;location;lat;lon;timestamp;P1;durP1;ratioP1;P2;durP2;ratioP2
68432;SDS011;55412;51.350;17.056;2024-02-21T00:01:08;10.02;;;1.83;;
68432;SDS011;55412;51.350;17.056;2024-02-21T00:03:34;16.97;;;2.50;;
68432;SDS011;55412;51.350;17.056;2024-02-21T00:05:59;12.77;;;2.67;;
68432;SDS011;55412;51.350;17.056;2024-02-21T00:08:25;11.43;;;2.30;;
68432;SDS011;55412;51.350;17.056;2024-02-21T00:10:50;15.40;;;1.90;;
68432;SDS011;55412;51.350;17.056;2024-02-21T00:13:16;13.53;;;2.13;;
68432;SDS011;55412;51.350;17.056;2024-02-21T00:15:42;11.32;;;2.28;;
68432;SDS011;55412;51.350;17.056;2024-02-21T00:18:08;15.63;;;2.40;;
68432;SDS011;55412;51.350;17.056;2024-02-21T00:20:36;14.25;;;2.22;;
68432;SDS011;55412;51.350;17.056;2024-02-21T00:23:02;14.82;;;2.75;;
68432;SDS011;55412;51.350;17.056;2024-02-21T00:25:27;14.87;;;2.93;;
68432;SDS011;55412;51.350;17.056;2024-02-21T00:27:53;11.77;;;2.20;;
68432;SDS011;55412;51.350;17.056;2024-02-21T00:30:19;10.07;;;2.00;;
68432;SDS011;55412;51.350;17.056;2024-02-21T00:32:44;12.77;;;2.40;;
68432;SDS011;55412;51.350;17.056;2024-02-21T00:35:10;18.53;;;1.87;;
68432;SDS011;55412;51.350;17.056;2024-02-21T00:37:36;14.05;;;2.53;;
68432;SDS011;55412;51.350;17.056;2024-02-21T00:40:01;8.70;;;1.70;;
68432;SDS011;55412;51.350;17.056;2024-02-21T00:42:27;12.43;;;2.25;;
68432;SDS011;55412;51.350;17.056;2024-02-21T00:44:53;18.43;;;1.93;;
68432;SDS011;55412;51.350;17.056;2024-02-21T00:47:18;16.50;;;2.20;;
68432;SDS011;55412;51.350;17.056;2024-02-21T00:49:44;10.82;;;1.70;;
68432;SDS011;55412;51.350;17.056;2024-02-21T00:52:10;12.27;;;2.25;;
68432;SDS011;55412;51.350;17.056;2024-02-21T00:54:35;12.87;;;2.53;;
68432;SDS011;55412;51.350;17.056;2024-02-21T00:57:01;15.07;;;1.90;;
68432;SDS011;55412;51.350;17.056;2024-02-21T00:59:27;18.37;;;2.20;;
68432;SDS011;55412;51.350;17.056;2024-02-21T01:01:53;17.95;;;3.00;;
68432;SDS011;55412;51.350;17.056;2024-02-21T01:04:19;17.50;;;2.30;;
68432;SDS011;55412;51.350;17.056;2024-02-21T01:06:44;16.67;;;2.67;;
68432;SDS011;55412;51.350;17.056;2024-02-21T01:09:13;15.83;;;2.47;;
68432;SDS011;55412;51.350;17.056;2024-02-21T01:11:39;9.70;;;2.08;;
68432;SDS011;55412;51.350;17.056;2024-02-21T01:14:05;11.60;;;1.80;;
68432;SDS011;55412;51.350;17.056;2024-02-21T01:16:30;16.30;;;2.40;;
68432;SDS011;55412;51.350;17.056;2024-02-21T01:18:56;8.53;;;1.90;;
68432;SDS011;55412;51.350;17.056;2024-02-21T01:21:22;14.45;;;2.53;;
68432;SDS011;55412;51.350;17.056;2024-02-21T01:23:48;16.15;;;2.33;;
68432;SDS011;55412;51.350;17.056;2024-02-21T01:26:13;16.93;;;2.57;;
68432;SDS011;55412;51.350;17.056;2024-02-21T01:28:41;13.95;;;1.98;;
68432;SDS011;55412;51.350;17.056;2024-02-21T01:31:06;15.55;;;2.67;;
68432;SDS011;55412;51.350;17.056;2024-02-21T01:33:32;12.57;;;2.40;;
68432;SDS011;55412;51.350;17.056;2024-02-21T01:36:03;12.55;;;2.53;;
68432;SDS011;55412;51.350;17.056;2024-02-21T01:38:31;12.93;;;2.30;;
68432;SDS011;55412;51.350;17.056;2024-02-21T01:40:58;14.95;;;2.95;;
68432;SDS011;55412;51.350;17.056;2024-02-21T01:43:24;19.17;;;2.67;;
68432;SDS011;55412;51.350;17.056;2024-02-21T01:45:50;14.40;;;2.28;;
68432;SDS011;55412;51.350;17.056;2024-02-21T01:48:21;11.65;;;2.15;;
68432;SDS011;55412;51.350;17.056;2024-02-21T01:50:48;11.75;;;2.03;;
68432;SDS011;55412;51.350;17.056;2024-02-21T01:53:16;13.77;;;2.10;;
68432;SDS011;55412;51.350;17.056;2024-02-21T01:55:45;18.67;;;3.03;;
68432;SDS011;55412;51.350;17.056;2024-02-21T01:58:14;11.60;;;2.83;;
68432;SDS011;55412;51.350;17.056;2024-02-21T02:00:41;12.65;;;1.75;;
68432;SDS011;55412;51.350;17.056;2024-02-21T02:03:11;13.15;;;2.25;;
68432;SDS011;55412;51.350;17.056;2024-02-21T02:08:12;11.88;;;2.05;;
68432;SDS011;55412;51.350;17.056;2024-02-21T02:10:41;19.92;;;4.10;;
68432;SDS011;55412;51.350;17.056;2024-02-21T02:13:07;17.27;;;2.53;;
68432;SDS011;55412;51.350;17.056;2024-02-21T02:15:40;12.35;;;2.95;;
68432;SDS011;55412;51.350;17.056;2024-02-21T02:18:10;15.60;;;2.63;;
68432;SDS011;55412;51.350;17.056;2024-02-21T02:20:37;18.10;;;3.20;;
68432;SDS011;55412;51.350;17.056;2024-02-21T02:23:06;12.23;;;2.35;;
68432;SDS011;55412;51.350;17.056;2024-02-21T02:25:35;12.32;;;2.13;;
68432;SDS011;55412;51.350;17.056;2024-02-21T02:28:02;18.35;;;2.85;;
68432;SDS011;55412;51.350;17.056;2024-02-21T02:30:31;12.33;;;2.37;;
68432;SDS011;55412;51.350;17.056;2024-02-21T02:32:58;14.25;;;2.42;;
68432;SDS011;55412;51.350;17.056;2024-02-21T02:35:23;9.25;;;2.03;;
68432;SDS011;55412;51.350;17.056;2024-02-21T02:37:49;13.70;;;2.30;;
68432;SDS011;55412;51.350;17.056;2024-02-21T02:40:15;16.08;;;2.45;;
68432;SDS011;55412;51.350;17.056;2024-02-21T02:42:41;15.73;;;2.40;;
68432;SDS011;55412;51.350;17.056;2024-02-21T02:45:07;14.27;;;2.30;;
68432;SDS011;55412;51.350;17.056;2024-02-21T02:47:33;9.90;;;1.50;;
68432;SDS011;55412;51.350;17.056;2024-02-21T02:49:59;12.60;;;2.40;;
68432;SDS011;55412;51.350;17.056;2024-02-21T02:52:25;11.35;;;2.22;;
68432;SDS011;55412;51.350;17.056;2024-02-21T02:54:51;15.27;;;3.13;;
68432;SDS011;55412;51.350;17.056;2024-02-21T02:57:20;14.52;;;2.67;;
68432;SDS011;55412;51.350;17.056;2024-02-21T02:59:49;11.90;;;2.45;;
68432;SDS011;55412;51.350;17.056;2024-02-21T03:02:16;13.00;;;2.43;;
68432;SDS011;55412;51.350;17.056;2024-02-21T03:04:42;15.60;;;2.45;;
68432;SDS011;55412;51.350;17.056;2024-02-21T03:07:08;10.32;;;2.03;;
68432;SDS011;55412;51.350;17.056;2024-02-21T03:09:36;8.60;;;1.88;;
68432;SDS011;55412;51.350;17.056;2024-02-21T03:12:05;15.23;;;2.35;;
68432;SDS011;55412;51.350;17.056;2024-02-21T03:14:32;13.67;;;2.57;;
68432;SDS011;55412;51.350;17.056;2024-02-21T03:16:58;13.90;;;1.90;;
68432;SDS011;55412;51.350;17.056;2024-02-21T03:19:24;11.93;;;2.38;;
68432;SDS011;55412;51.350;17.056;2024-02-21T03:21:50;12.90;;;2.17;;
68432;SDS011;55412;51.350;17.056;2024-02-21T03:24:18;12.57;;;2.58;;
68432;SDS011;55412;51.350;17.056;2024-02-21T03:26:44;11.73;;;1.95;;
68432;SDS011;55412;51.350;17.056;2024-02-21T03:29:10;13.37;;;2.17;;
68432;SDS011;55412;51.350;17.056;2024-02-21T03:31:36;15.57;;;3.00;;
68432;SDS011;55412;51.350;17.056;2024-02-21T03:34:02;13.60;;;2.05;;
68432;SDS011;55412;51.350;17.056;2024-02-21T03:36:28;12.50;;;2.25;;
68432;SDS011;55412;51.350;17.056;2024-02-21T03:38:54;5.93;;;1.30;;
68432;SDS011;55412;51.350;17.056;2024-02-21T03:41:20;13.27;;;2.35;;
68432;SDS011;55412;51.350;17.056;2024-02-21T03:43:46;15.93;;;2.60;;
68432;SDS011;55412;51.350;17.056;2024-02-21T03:46:12;15.23;;;2.85;;
68432;SDS011;55412;51.350;17.056;2024-02-21T03:48:40;9.37;;;1.73;;
68432;SDS011;55412;51.350;17.056;2024-02-21T03:51:06;15.90;;;2.15;;
68432;SDS011;55412;51.350;17.056;2024-02-21T03:53:32;10.15;;;1.92;;
68432;SDS011;55412;51.350;17.056;2024-02-21T03:56:00;8.80;;;1.98;;
68432;SDS011;55412;51.350;17.056;2024-02-21T03:58:28;12.47;;;2.43;;
68432;SDS011;55412;51.350;17.056;2024-02-21T04:00:55;12.90;;;2.17;;
68432;SDS011;55412;51.350;17.056;2024-02-21T04:03:20;12.57;;;2.15;;
68432;SDS011;55412;51.350;17.056;2024-02-21T04:05:46;11.57;;;2.10;;
68432;SDS011;55412;51.350;17.056;2024-02-21T04:08:12;9.73;;;2.13;;
68432;SDS011;55412;51.350;17.056;2024-02-21T04:10:39;9.13;;;2.20;;
68432;SDS011;55412;51.350;17.056;2024-02-21T04:13:06;15.18;;;2.22;;
68432;SDS011;55412;51.350;17.056;2024-02-21T04:15:31;10.10;;;2.28;;
68432;SDS011;55412;51.350;17.056;2024-02-21T04:17:57;10.57;;;2.20;;
68432;SDS011;55412;51.350;17.056;2024-02-21T04:20:23;9.20;;;2.07;;
68432;SDS011;55412;51.350;17.056;2024-02-21T04:22:48;12.50;;;2.38;;
68432;SDS011;55412;51.350;17.056;2024-02-21T04:25:14;8.90;;;2.00;;
68432;SDS011;55412;51.350;17.056;2024-02-21T04:27:40;14.85;;;2.42;;
68432;SDS011;55412;51.350;17.056;2024-02-21T04:30:07;12.20;;;2.42;;
68432;SDS011;55412;51.350;17.056;2024-02-21T04:32:34;9.85;;;2.15;;
68432;SDS011;55412;51.350;17.056;2024-02-21T04:35:00;15.40;;;2.40;;
68432;SDS011;55412;51.350;17.056;2024-02-21T04:37:26;13.07;;;2.63;;
68432;SDS011;55412;51.350;17.056;2024-02-21T04:39:52;14.20;;;2.63;;
68432;SDS011;55412;51.350;17.056;2024-02-21T04:42:18;13.53;;;2.73;;
68432;SDS011;55412;51.350;17.056;2024-02-21T04:44:44;12.57;;;2.67;;
68432;SDS011;55412;51.350;17.056;2024-02-21T04:47:09;19.20;;;3.53;;
68432;SDS011;55412;51.350;17.056;2024-02-21T04:49:35;13.10;;;2.55;;
68432;SDS011;55412;51.350;17.056;2024-02-21T04:52:01;14.73;;;3.30;;
68432;SDS011;55412;51.350;17.056;2024-02-21T04:54:27;10.00;;;2.87;;
68432;SDS011;55412;51.350;17.056;2024-02-21T04:56:53;14.50;;;3.17;;
68432;SDS011;55412;51.350;17.056;2024-02-21T04:59:18;13.97;;;2.93;;
68432;SDS011;55412;51.350;17.056;2024-02-21T05:01:44;19.75;;;3.38;;
68432;SDS011;55412;51.350;17.056;2024-02-21T05:04:10;14.40;;;2.70;;
68432;SDS011;55412;51.350;17.056;2024-02-21T05:06:39;7.63;;;1.55;;
68432;SDS011;55412;51.350;17.056;2024-02-21T05:09:08;14.10;;;2.42;;
68432;SDS011;55412;51.350;17.056;2024-02-21T05:11:35;15.87;;;2.90;;
68432;SDS011;55412;51.350;17.056;2024-02-21T05:14:01;13.02;;;2.30;;
68432;SDS011;55412;51.350;17.056;2024-02-21T05:16:27;13.70;;;2.33;;
68432;SDS011;55412;51.350;17.056;2024-02-21T05:18:53;11.52;;;2.20;;
68432;SDS011;55412;51.350;17.056;2024-02-21T05:21:19;14.47;;;2.57;;
68432;SDS011;55412;51.350;17.056;2024-02-21T05:23:45;9.45;;;2.63;;
68432;SDS011;55412;51.350;17.056;2024-02-21T05:26:10;11.77;;;2.67;;
68432;SDS011;55412;51.350;17.056;2024-02-21T05:28:36;11.47;;;2.20;;
68432;SDS011;55412;51.350;17.056;2024-02-21T05:31:02;9.48;;;2.60;;
68432;SDS011;55412;51.350;17.056;2024-02-21T05:33:27;18.77;;;3.80;;
68432;SDS011;55412;51.350;17.056;2024-02-21T05:35:53;10.87;;;2.50;;
68432;SDS011;55412;51.350;17.056;2024-02-21T05:38:19;14.32;;;2.40;;
68432;SDS011;55412;51.350;17.056;2024-02-21T05:40:45;8.93;;;2.47;;
68432;SDS011;55412;51.350;17.056;2024-02-21T05:43:10;14.35;;;3.22;;
68432;SDS011;55412;51.350;17.056;2024-02-21T05:45:36;9.13;;;2.83;;
68432;SDS011;55412;51.350;17.056;2024-02-21T05:48:02;13.55;;;2.35;;
68432;SDS011;55412;51.350;17.056;2024-02-21T05:50:29;10.80;;;2.65;;
68432;SDS011;55412;51.350;17.056;2024-02-21T05:52:54;15.83;;;2.87;;
68432;SDS011;55412;51.350;17.056;2024-02-21T05:55:20;13.70;;;3.22;;
68432;SDS011;55412;51.350;17.056;2024-02-21T05:57:46;16.50;;;3.40;;
68432;SDS011;55412;51.350;17.056;2024-02-21T06:00:13;17.27;;;2.90;;
68432;SDS011;55412;51.350;17.056;2024-02-21T06:02:39;15.77;;;3.25;;
68432;SDS011;55412;51.350;17.056;2024-02-21T06:05:05;19.67;;;3.58;;
68432;SDS011;55412;51.350;17.056;2024-02-21T06:07:32;12.57;;;3.50;;
68432;SDS011;55412;51.350;17.056;2024-02-21T06:10:01;13.67;;;4.13;;
68432;SDS011;55412;51.350;17.056;2024-02-21T06:12:28;13.35;;;3.70;;
68432;SDS011;55412;51.350;17.056;2024-02-21T06:14:53;18.75;;;3.85;;
68432;SDS011;55412;51.350;17.056;2024-02-21T06:17:19;12.67;;;2.53;;
68432;SDS011;55412;51.350;17.056;2024-02-21T06:19:45;11.80;;;2.75;;
68432;SDS011;55412;51.350;17.056;2024-02-21T06:22:11;9.85;;;2.70;;
68432;SDS011;55412;51.350;17.056;2024-02-21T06:24:37;19.02;;;3.78;;
68432;SDS011;55412;51.350;17.056;2024-02-21T06:27:04;12.40;;;2.67;;
68432;SDS011;55412;51.350;17.056;2024-02-21T06:29:33;14.48;;;3.78;;
68432;SDS011;55412;51.350;17.056;2024-02-21T06:31:59;14.15;;;4.05;;
68432;SDS011;55412;51.350;17.056;2024-02-21T06:34:26;16.88;;;4.18;;
68432;SDS011;55412;51.350;17.056;2024-02-21T06:36:52;14.85;;;3.30;;
68432;SDS011;55412;51.350;17.056;2024-02-21T06:39:17;13.90;;;3.20;;
68432;SDS011;55412;51.350;17.056;2024-02-21T06:41:43;11.47;;;3.70;;
68432;SDS011;55412;51.350;17.056;2024-02-21T06:44:09;12.27;;;2.95;;
68432;SDS011;55412;51.350;17.056;2024-02-21T06:46:35;11.80;;;2.47;;
68432;SDS011;55412;51.350;17.056;2024-02-21T06:49:01;17.27;;;3.60;;
68432;SDS011;55412;51.350;17.056;2024-02-21T06:51:28;14.55;;;3.00;;
68432;SDS011;55412;51.350;17.056;2024-02-21T06:53:54;9.97;;;2.70;;
68432;SDS011;55412;51.350;17.056;2024-02-21T06:56:22;13.82;;;2.85;;
68432;SDS011;55412;51.350;17.056;2024-02-21T06:58:56;11.23;;;2.55;;
68432;SDS011;55412;51.350;17.056;2024-02-21T07:01:23;11.35;;;2.67;;
68432;SDS011;55412;51.350;17.056;2024-02-21T07:03:49;11.95;;;2.03;;
68432;SDS011;55412;51.350;17.056;2024-02-21T07:06:15;13.10;;;2.77;;
68432;SDS011;55412;51.350;17.056;2024-02-21T07:08:41;14.85;;;3.45;;
68432;SDS011;55412;51.350;17.056;2024-02-21T07:11:06;13.37;;;2.60;;
68432;SDS011;55412;51.350;17.056;2024-02-21T07:13:32;11.90;;;2.45;;
68432;SDS011;55412;51.350;17.056;2024-02-21T07:15:58;12.97;;;2.40;;
68432;SDS011;55412;51.350;17.056;2024-02-21T07:18:24;11.90;;;2.73;;
68432;SDS011;55412;51.350;17.056;2024-02-21T07:20:52;10.68;;;3.05;;
68432;SDS011;55412;51.350;17.056;2024-02-21T07:23:18;13.27;;;2.70;;
68432;SDS011;55412;51.350;17.056;2024-02-21T07:25:44;14.85;;;2.55;;
68432;SDS011;55412;51.350;17.056;2024-02-21T07:28:10;10.25;;;2.72;;
68432;SDS011;55412;51.350;17.056;2024-02-21T07:30:36;11.35;;;2.63;;
68432;SDS011;55412;51.350;17.056;2024-02-21T07:33:02;10.70;;;2.73;;
68432;SDS011;55412;51.350;17.056;2024-02-21T07:35:28;13.77;;;2.50;;
68432;SDS011;55412;51.350;17.056;2024-02-21T07:37:53;9.17;;;3.13;;
68432;SDS011;55412;51.350;17.056;2024-02-21T07:40:19;11.05;;;2.10;;
68432;SDS011;55412;51.350;17.056;2024-02-21T07:42:45;8.37;;;2.40;;
68432;SDS011;55412;51.350;17.056;2024-02-21T07:45:11;11.75;;;3.15;;
68432;SDS011;55412;51.350;17.056;2024-02-21T07:47:36;12.03;;;2.50;;
68432;SDS011;55412;51.350;17.056;2024-02-21T07:50:03;12.88;;;2.60;;
68432;SDS011;55412;51.350;17.056;2024-02-21T07:52:29;12.25;;;2.83;;
68432;SDS011;55412;51.350;17.056;2024-02-21T07:54:55;13.20;;;2.85;;
68432;SDS011;55412;51.350;17.056;2024-02-21T07:57:21;8.50;;;2.00;;
68432;SDS011;55412;51.350;17.056;2024-02-21T07:59:47;10.55;;;2.60;;
68432;SDS011;55412;51.350;17.056;2024-02-21T08:02:16;10.40;;;3.45;;
68432;SDS011;55412;51.350;17.056;2024-02-21T08:04:42;9.80;;;2.53;;
68432;SDS011;55412;51.350;17.056;2024-02-21T08:07:08;9.88;;;2.78;;
68432;SDS011;55412;51.350;17.056;2024-02-21T08:09:35;9.50;;;2.95;;
68432;SDS011;55412;51.350;17.056;2024-02-21T08:12:03;13.93;;;3.72;;
68432;SDS011;55412;51.350;17.056;2024-02-21T08:14:29;11.50;;;3.50;;
68432;SDS011;55412;51.350;17.056;2024-02-21T08:16:55;9.98;;;3.10;;
68432;SDS011;55412;51.350;17.056;2024-02-21T08:19:21;21.03;;;3.60;;
68432;SDS011;55412;51.350;17.056;2024-02-21T08:21:47;15.83;;;4.00;;
68432;SDS011;55412;51.350;17.056;2024-02-21T08:24:13;14.52;;;3.67;;
68432;SDS011;55412;51.350;17.056;2024-02-21T08:26:43;16.20;;;4.07;;
68432;SDS011;55412;51.350;17.056;2024-02-21T08:29:12;11.27;;;3.47;;
68432;SDS011;55412;51.350;17.056;2024-02-21T08:31:38;11.50;;;3.43;;
68432;SDS011;55412;51.350;17.056;2024-02-21T08:34:04;12.45;;;3.55;;
68432;SDS011;55412;51.350;17.056;2024-02-21T08:36:33;15.63;;;3.40;;
68432;SDS011;55412;51.350;17.056;2024-02-21T08:39:00;15.30;;;3.67;;
68432;SDS011;55412;51.350;17.056;2024-02-21T08:41:30;13.48;;;3.10;;
68432;SDS011;55412;51.350;17.056;2024-02-21T08:43:56;9.95;;;3.25;;
68432;SDS011;55412;51.350;17.056;2024-02-21T08:46:22;8.87;;;3.57;;
68432;SDS011;55412;51.350;17.056;2024-02-21T08:48:52;11.37;;;3.17;;
68432;SDS011;55412;51.350;17.056;2024-02-21T08:51:19;12.65;;;2.70;;
68432;SDS011;55412;51.350;17.056;2024-02-21T08:53:45;6.93;;;2.45;;
68432;SDS011;55412;51.350;17.056;2024-02-21T08:56:15;11.32;;;2.85;;
68432;SDS011;55412;51.350;17.056;2024-02-21T08:58:41;13.23;;;2.70;;
68432;SDS011;55412;51.350;17.056;2024-02-21T09:01:07;11.03;;;3.07;;
68432;SDS011;55412;51.350;17.056;2024-02-21T09:03:36;10.90;;;3.30;;
68432;SDS011;55412;51.350;17.056;2024-02-21T09:06:04;9.57;;;2.78;;
68432;SDS011;55412;51.350;17.056;2024-02-21T09:08:30;12.43;;;3.17;;
68432;SDS011;55412;51.350;17.056;2024-02-21T09:10:56;14.17;;;4.00;;
68432;SDS011;55412;51.350;17.056;2024-02-21T09:13:22;11.55;;;2.97;;
68432;SDS011;55412;51.350;17.056;2024-02-21T09:15:48;13.73;;;3.22;;
68432;SDS011;55412;51.350;17.056;2024-02-21T09:18:15;13.40;;;3.07;;
68432;SDS011;55412;51.350;17.056;2024-02-21T09:20:42;14.60;;;3.85;;
68432;SDS011;55412;51.350;17.056;2024-02-21T09:23:08;13.88;;;3.72;;
68432;SDS011;55412;51.350;17.056;2024-02-21T09:25:34;14.60;;;3.88;;
68432;SDS011;55412;51.350;17.056;2024-02-21T09:28:00;17.37;;;3.83;;
68432;SDS011;55412;51.350;17.056;2024-02-21T09:30:27;11.50;;;3.22;;
68432;SDS011;55412;51.350;17.056;2024-02-21T09:32:52;9.57;;;3.50;;
68432;SDS011;55412;51.350;17.056;2024-02-21T09:35:18;12.48;;;3.70;;
68432;SDS011;55412;51.350;17.056;2024-02-21T09:37:44;14.93;;;3.90;;
68432;SDS011;55412;51.350;17.056;2024-02-21T09:40:10;17.63;;;4.45;;
68432;SDS011;55412;51.350;17.056;2024-02-21T09:42:37;13.93;;;4.18;;
68432;SDS011;55412;51.350;17.056;2024-02-21T09:45:07;15.65;;;3.85;;
68432;SDS011;55412;51.350;17.056;2024-02-21T09:47:42;12.90;;;4.07;;
68432;SDS011;55412;51.350;17.056;2024-02-21T09:50:17;12.33;;;4.30;;
68432;SDS011;55412;51.350;17.056;2024-02-21T09:52:43;12.63;;;3.83;;
68432;SDS011;55412;51.350;17.056;2024-02-21T09:55:10;13.57;;;4.18;;
68432;SDS011;55412;51.350;17.056;2024-02-21T09:57:38;15.75;;;4.63;;
68432;SDS011;55412;51.350;17.056;2024-02-21T10:00:05;13.30;;;3.83;;
68432;SDS011;55412;51.350;17.056;2024-02-21T10:02:34;14.87;;;3.77;;
68432;SDS011;55412;51.350;17.056;2024-02-21T10:04:59;12.25;;;3.58;;
68432;SDS011;55412;51.350;17.056;2024-02-21T10:07:25;11.95;;;2.90;;
68432;SDS011;55412;51.350;17.056;2024-02-21T10:10:00;15.00;;;4.03;;
68432;SDS011;55412;51.350;17.056;2024-02-21T10:12:27;11.48;;;3.72;;
68432;SDS011;55412;51.350;17.056;2024-02-21T10:15:00;13.18;;;3.90;;
68432;SDS011;55412;51.350;17.056;2024-02-21T10:17:29;16.00;;;3.80;;
68432;SDS011;55412;51.350;17.056;2024-02-21T10:19:55;14.48;;;4.28;;
68432;SDS011;55412;51.350;17.056;2024-02-21T10:22:21;16.27;;;4.45;;
68432;SDS011;55412;51.350;17.056;2024-02-21T10:24:46;14.07;;;4.10;;
68432;SDS011;55412;51.350;17.056;2024-02-21T10:27:12;12.20;;;3.85;;
68432;SDS011;55412;51.350;17.056;2024-02-21T10:29:38;13.57;;;4.27;;
68432;SDS011;55412;51.350;17.056;2024-02-21T10:32:08;12.70;;;3.85;;
68432;SDS011;55412;51.350;17.056;2024-02-21T10:34:36;14.85;;;3.38;;
68432;SDS011;55412;51.350;17.056;2024-02-21T10:39:28;11.17;;;3.10;;
68432;SDS011;55412;51.350;17.056;2024-02-21T10:41:55;13.52;;;3.13;;
68432;SDS011;55412;51.350;17.056;2024-02-21T10:44:27;8.18;;;2.42;;
68432;SDS011;55412;51.350;17.056;2024-02-21T10:46:55;14.85;;;3.05;;
68432;SDS011;55412;51.350;17.056;2024-02-21T10:49:25;10.70;;;2.70;;
68432;SDS011;55412;51.350;17.056;2024-02-21T10:52:00;14.90;;;2.83;;
68432;SDS011;55412;51.350;17.056;2024-02-21T10:57:13;11.73;;;2.80;;
68432;SDS011;55412;51.350;17.056;2024-02-21T10:59:42;11.20;;;2.88;;
68432;SDS011;55412;51.350;17.056;2024-02-21T11:02:09;12.77;;;4.10;;
68432;SDS011;55412;51.350;17.056;2024-02-21T11:04:35;10.67;;;2.37;;
68432;SDS011;55412;51.350;17.056;2024-02-21T11:07:05;9.05;;;2.78;;
68432;SDS011;55412;51.350;17.056;2024-02-21T11:09:32;11.88;;;3.22;;
68432;SDS011;55412;51.350;17.056;2024-02-21T11:11:58;12.13;;;2.70;;
68432;SDS011;55412;51.350;17.056;2024-02-21T11:14:26;13.82;;;3.10;;
68432;SDS011;55412;51.350;17.056;2024-02-21T11:16:53;10.93;;;3.30;;
68432;SDS011;55412;51.350;17.056;2024-02-21T11:19:27;12.82;;;2.83;;
68432;SDS011;55412;51.350;17.056;2024-02-21T11:21:54;13.45;;;3.72;;
68432;SDS011;55412;51.350;17.056;2024-02-21T11:24:26;9.20;;;2.17;;
68432;SDS011;55412;51.350;17.056;2024-02-21T11:26:53;10.73;;;2.42;;
68432;SDS011;55412;51.350;17.056;2024-02-21T11:29:25;12.65;;;3.30;;
68432;SDS011;55412;51.350;17.056;2024-02-21T11:31:51;12.15;;;3.20;;
68432;SDS011;55412;51.350;17.056;2024-02-21T11:34:18;14.27;;;3.73;;
68432;SDS011;55412;51.350;17.056;2024-02-21T11:36:52;17.17;;;4.15;;
68432;SDS011;55412;51.350;17.056;2024-02-21T11:39:25;13.68;;;3.53;;
68432;SDS011;55412;51.350;17.056;2024-02-21T11:42:03;11.48;;;3.42;;
68432;SDS011;55412;51.350;17.056;2024-02-21T11:44:31;13.13;;;3.88;;
68432;SDS011;55412;51.350;17.056;2024-02-21T11:46:57;16.60;;;4.77;;
68432;SDS011;55412;51.350;17.056;2024-02-21T11:49:29;15.32;;;3.75;;
68432;SDS011;55412;51.350;17.056;2024-02-21T11:52:02;12.55;;;4.35;;
68432;SDS011;55412;51.350;17.056;2024-02-21T11:54:32;15.02;;;3.72;;
68432;SDS011;55412;51.350;17.056;2024-02-21T11:56:59;10.82;;;3.60;;
68432;SDS011;55412;51.350;17.056;2024-02-21T11:59:25;13.23;;;3.93;;
68432;SDS011;55412;51.350;17.056;2024-02-21T12:01:52;11.57;;;3.17;;
68432;SDS011;55412;51.350;17.056;2024-02-21T12:04:18;9.75;;;2.85;;
68432;SDS011;55412;51.350;17.056;2024-02-21T12:06:45;16.45;;;4.00;;
68432;SDS011;55412;51.350;17.056;2024-02-21T12:09:14;11.73;;;3.83;;
68432;SDS011;55412;51.350;17.056;2024-02-21T12:11:44;14.73;;;3.80;;
68432;SDS011;55412;51.350;17.056;2024-02-21T12:14:15;12.57;;;3.55;;
68432;SDS011;55412;51.350;17.056;2024-02-21T12:16:41;9.95;;;3.30;;
68432;SDS011;55412;51.350;17.056;2024-02-21T12:19:09;13.02;;;3.03;;
68432;SDS011;55412;51.350;17.056;2024-02-21T12:21:35;10.03;;;3.40;;
68432;SDS011;55412;51.350;17.056;2024-02-21T12:24:11;15.25;;;3.70;;
68432;SDS011;55412;51.350;17.056;2024-02-21T12:26:38;8.55;;;3.00;;
68432;SDS011;55412;51.350;17.056;2024-02-21T12:29:04;10.48;;;3.55;;
68432;SDS011;55412;51.350;17.056;2024-02-21T12:31:30;14.37;;;3.97;;
68432;SDS011;55412;51.350;17.056;2024-02-21T12:33:56;12.10;;;3.35;;
68432;SDS011;55412;51.350;17.056;2024-02-21T12:36:22;13.02;;;3.40;;
68432;SDS011;55412;51.350;17.056;2024-02-21T12:38:49;12.07;;;3.50;;
68432;SDS011;55412;51.350;17.056;2024-02-21T12:41:14;12.80;;;3.40;;
68432;SDS011;55412;51.350;17.056;2024-02-21T12:43:40;12.38;;;3.88;;
68432;SDS011;55412;51.350;17.056;2024-02-21T12:46:06;11.63;;;3.77;;
68432;SDS011;55412;51.350;17.056;2024-02-21T12:48:33;16.40;;;4.07;;
68432;SDS011;55412;51.350;17.056;2024-02-21T12:50:59;12.23;;;3.97;;
68432;SDS011;55412;51.350;17.056;2024-02-21T12:53:25;14.53;;;3.27;;
68432;SDS011;55412;51.350;17.056;2024-02-21T12:55:51;9.63;;;3.23;;
68432;SDS011;55412;51.350;17.056;2024-02-21T12:58:18;11.40;;;3.67;;
68432;SDS011;55412;51.350;17.056;2024-02-21T13:00:43;13.10;;;3.57;;
68432;SDS011;55412;51.350;17.056;2024-02-21T13:03:09;13.05;;;3.38;;
68432;SDS011;55412;51.350;17.056;2024-02-21T13:05:36;14.55;;;3.50;;
68432;SDS011;55412;51.350;17.056;2024-02-21T13:08:02;16.13;;;3.05;;
68432;SDS011;55412;51.350;17.056;2024-02-21T13:10:27;11.17;;;3.27;;
68432;SDS011;55412;51.350;17.056;2024-02-21T13:12:53;15.02;;;3.88;;
68432;SDS011;55412;51.350;17.056;2024-02-21T13:15:19;17.37;;;2.83;;
68432;SDS011;55412;51.350;17.056;2024-02-21T13:17:45;9.05;;;3.38;;
68432;SDS011;55412;51.350;17.056;2024-02-21T13:20:11;10.40;;;2.45;;
68432;SDS011;55412;51.350;17.056;2024-02-21T13:22:37;7.17;;;1.73;;
68432;SDS011;55412;51.350;17.056;2024-02-21T13:25:03;8.18;;;2.45;;
68432;SDS011;55412;51.350;17.056;2024-02-21T13:27:32;13.07;;;2.58;;
68432;SDS011;55412;51.350;17.056;2024-02-21T13:29:58;5.63;;;1.60;;
68432;SDS011;55412;51.350;17.056;2024-02-21T13:32:25;5.90;;;2.40;;
68432;SDS011;55412;51.350;17.056;2024-02-21T13:34:51;9.47;;;2.67;;
68432;SDS011;55412;51.350;17.056;2024-02-21T13:37:17;8.30;;;2.28;;
68432;SDS011;55412;51.350;17.056;2024-02-21T13:39:43;5.25;;;2.83;;
68432;SDS011;55412;51.350;17.056;2024-02-21T13:42:09;7.97;;;2.57;;
68432;SDS011;55412;51.350;17.056;2024-02-21T13:44:35;9.93;;;3.35;;
68432;SDS011;55412;51.350;17.056;2024-02-21T13:47:02;9.15;;;3.10;;
68432;SDS011;55412;51.350;17.056;2024-02-21T13:49:29;12.02;;;3.00;;
68432;SDS011;55412;51.350;17.056;2024-02-21T13:51:55;7.55;;;2.20;;
68432;SDS011;55412;51.350;17.056;2024-02-21T13:54:21;5.57;;;1.23;;
68432;SDS011;55412;51.350;17.056;2024-02-21T13:56:47;7.40;;;1.70;;
68432;SDS011;55412;51.350;17.056;2024-02-21T13:59:13;7.67;;;1.43;;
68432;SDS011;55412;51.350;17.056;2024-02-21T14:01:39;6.38;;;1.88;;
68432;SDS011;55412;51.350;17.056;2024-02-21T14:04:04;10.45;;;1.70;;
68432;SDS011;55412;51.350;17.056;2024-02-21T14:06:30;9.93;;;2.43;;
68432;SDS011;55412;51.350;17.056;2024-02-21T14:08:56;11.60;;;1.98;;
68432;SDS011;55412;51.350;17.056;2024-02-21T14:11:22;7.03;;;2.40;;
68432;SDS011;55412;51.350;17.056;2024-02-21T14:13:48;7.27;;;2.23;;
68432;SDS011;55412;51.350;17.056;2024-02-21T14:16:14;8.25;;;2.42;;
68432;SDS011;55412;51.350;17.056;2024-02-21T14:18:40;5.67;;;2.00;;
68432;SDS011;55412;51.350;17.056;2024-02-21T14:21:09;13.52;;;2.95;;
68432;SDS011;55412;51.350;17.056;2024-02-21T14:23:38;7.18;;;2.65;;
68432;SDS011;55412;51.350;17.056;2024-02-21T14:26:04;11.00;;;3.13;;
68432;SDS011;55412;51.350;17.056;2024-02-21T14:28:31;13.00;;;2.53;;